AirNav   Everest Fuels
 
 699 users online  

03FL Ranger Heliport
West Palm Beach, Florida, USA

GOING TO WEST PALM BEACH?


FAA INFORMATION EFFECTIVE 07 NOVEMBER 2019

Location

FAA Identifier: 03FL
Lat/Long: 26-41-01.2370N 080-11-14.1620W
26-41.020617N 080-11.236033W
26.6836769,-80.1872672
(estimated)
Elevation: 20 ft. / 6 m (estimated)
Variation: 03W (1985)
From city: 3 miles W of WEST PALM BEACH, FL
Time zone: UTC -5 (UTC -4 during Daylight Saving Time)
Zip code: 33411

Heliport Operations

Heliport use: Private use. Permission required prior to landing
Activation date: 03/1980
Control tower: no
ARTCC: MIAMI CENTER
FSS: MIAMI FLIGHT SERVICE STATION
Attendance: UNATNDD
Wind indicator: yes
Segmented circle: no

Heliport Communications

WX ASOS at PBI (5 nm E): 123.75 (561-683-2548)
WX AWOS-3PT at LNA (8 nm SE): 119.925 (561-964-0308)
WX AWOS-3 at F45 (10 nm N): 119.975 (561-630-6932)
WX AWOS-3 at BCT (19 nm S): 121.125 (561-391-2696)

Nearby radio navigation aids

VOR radial/distance  VOR name  Freq  Var
PBIr275/5.4PALM BEACH VORTAC115.7003W
PHKr102/27.7PAHOKEE VOR/DME115.4000E
FLLr004/36.6FORT LAUDERDALE VOR/DME114.4006W

 
NDB name  Hdg/Dist  Freq  Var  ID
UNITED155/15.740505WUTX ..- - -..-

Heliport Services

Runway Information

Helipad H1

Dimensions: 50 x 40 ft. / 15 x 12 m
Surface: concrete, in fair condition
Latitude: 26-41.020617N
Longitude: 080-11.236033W
Elevation: 20.0 ft.
Traffic pattern: leftleft
Markings: none, in fair condition

Heliport Ownership and Management from official FAA records

Ownership: Privately-owned
Owner: RANGER CONSTRUCTION IND, INC.
PO BOX 15065
WEST PALM BEACH, FL 33416
Phone 561-793-9400
EXT 498
Manager: GRANT HEAM
101 SANSBURY'S WAY
WEST PALM BEACH, FL 33416
Phone (561) 371-6925
PHYSICAL ADDRESS: 101 SANSBURY'S WAY WEST PALM BEACH, FL 33411-3670

Heliport Operational Statistics

Aircraft based on the field: 1
Helicopters: 1
    

Additional Remarks

FOR CD CTC PALM BEACH APCH AT 561-275-1430

Instrument Procedures

There are no published instrument procedures at 03FL.

Some nearby airports with instrument procedures:

KPBI - Palm Beach International Airport (5 nm E)
KLNA - Palm Beach County Park Airport (8 nm SE)
F45 - North Palm Beach County General Aviation Airport (10 nm N)
06FA - William P Gwinn Airport (15 nm NW)
KBCT - Boca Raton Airport (19 nm S)
 
Loc | Ops | Rwys | IFR | FBO | Links
Com | Nav | Svcs | Stats | Notes

Reliance Aviation
AirBoss

 
Area around 03FL (Ranger Heliport)
 
Road maps at: MapQuest Bing Google
 
Aerial photo
No photo
 
Sectional chart

 
Airport distance calculator
Flying to Ranger Heliport? Find the distance to fly.

From to 03FL

Sunrise and sunset
Times for 15-Nov-2019
 Local
(UTC-5)
 Zulu
(UTC)
Morning civil twilight06:1711:17
Sunrise06:4111:41
Sunset17:3022:30
Evening civil twilight17:5422:54

Current date and time
Zulu (UTC)  16-Nov-2019 03:06:50
Local (UTC-5)  15-Nov-2019 22:06:50
 
METAR
KPBI 
5nm E 
160253Z 29010KT 10SM BKN011 BKN023 OVC170 22/19 A2990 RMK AO2 SLP125 60000 T02170194 53004 $
KLNA 
8nm SE 
160255Z AUTO 29006KT 10SM BKN009 OVC016 22/21 A2991 RMK AO2 6//// T02230207 PNO
KF45 
10nm N 
160250Z AUTO 31007KT 10SM SCT009 OVC019 20/20 A2992 RMK AO2 TSNO
KBCT 
19nm S 
160147Z 27008KT 10SM FEW015 23/21 A2989
TAF
KPBI 
5nm E 
152356Z 1600/1624 25005KT 6SM -SHRA SCT030 BKN050 BKN120 FM160500 29007KT P6SM SCT025 BKN100 FM161300 31011KT P6SM FEW030 SCT120 FM161700 30011G18KT P6SM FEW250
NOTAMs
Click for the latest NOTAMs
NOTAMs are issued by the DoD/FAA and will open in a separate window not controlled by AirNav.

 

 
 

Would you like to see your business listed on this page?

 If your business provides an interesting product or service to pilots, flight crews, aircraft, or users of the Ranger Heliport, you should consider listing it here.  To start the listing process, click on the button below
 
Add a business
 

Other Pages about Ranger Heliport

Update a link
 
Copyright © AirNav, LLC. All rights reserved. Privacy Policy  Contact